createdAt,value
2022-11-22T00:00:16.758Z,61.07
2022-11-22T00:02:43.273Z,62.00
2022-11-22T00:05:10.365Z,62.23
2022-11-22T00:07:38.109Z,62.75
2022-11-22T00:10:06.703Z,63.03
2022-11-22T00:12:33.308Z,63.22
2022-11-22T00:15:00.135Z,62.12
2022-11-22T00:17:26.596Z,62.80
2022-11-22T00:19:53.149Z,63.17
2022-11-22T00:22:19.836Z,62.68
2022-11-22T00:24:46.383Z,63.65
2022-11-22T00:27:13.253Z,63.80
2022-11-22T00:29:39.695Z,62.75
2022-11-22T00:32:06.209Z,63.39
2022-11-22T00:34:32.678Z,63.68
2022-11-22T00:36:59.181Z,64.29
2022-11-22T00:39:25.656Z,64.34
2022-11-22T00:41:52.371Z,63.72
2022-11-22T00:44:18.899Z,64.56
2022-11-22T00:46:45.398Z,65.04
2022-11-22T00:49:11.878Z,64.52
2022-11-22T00:51:38.374Z,64.14
2022-11-22T00:54:04.992Z,63.48
2022-11-22T00:56:32.089Z,63.41
2022-11-22T00:58:58.806Z,62.79
2022-11-22T01:01:25.464Z,63.90
2022-11-22T01:03:51.989Z,63.48
2022-11-22T01:06:18.468Z,64.07
2022-11-22T01:08:45.004Z,62.53
2022-11-22T01:11:17.735Z,62.52
2022-11-22T01:13:44.420Z,62.77
2022-11-22T01:16:12.548Z,63.01
2022-11-22T01:18:39.145Z,62.46
2022-11-22T01:21:05.966Z,60.86
2022-11-22T01:23:33.736Z,61.50
2022-11-22T01:26:00.441Z,60.13
2022-11-22T01:28:27.212Z,59.80
2022-11-22T01:30:54.559Z,58.85
2022-11-22T01:33:21.302Z,59.99
2022-11-22T01:35:47.987Z,61.06
2022-11-22T01:38:14.436Z,59.50
2022-11-22T01:40:40.982Z,57.53
2022-11-22T01:43:16.263Z,58.60
2022-11-22T01:45:54.293Z,58.54
2022-11-22T01:48:36.411Z,58.75
2022-11-22T01:51:28.723Z,57.54
2022-11-22T01:54:02.402Z,57.90
2022-11-22T01:56:29.657Z,57.37
2022-11-22T01:59:01.976Z,58.83
2022-11-22T02:01:28.817Z,60.23
2022-11-22T02:03:57.004Z,61.93
2022-11-22T02:06:26.241Z,62.72
2022-11-22T02:09:02.490Z,62.06
2022-11-22T02:11:33.892Z,63.88
2022-11-22T02:14:00.906Z,65.36
2022-11-22T02:16:27.846Z,64.96
2022-11-22T02:18:54.386Z,67.16
2022-11-22T02:21:21.098Z,64.27
2022-11-22T02:24:00.221Z,63.73
2022-11-22T02:26:28.115Z,65.96
2022-11-22T02:28:57.825Z,66.86
2022-11-22T02:31:46.308Z,68.82
2022-11-22T02:34:14.060Z,69.71
2022-11-22T02:36:49.367Z,69.04
2022-11-22T02:39:18.668Z,69.19
2022-11-22T02:41:45.466Z,68.76
2022-11-22T02:44:12.630Z,69.11
2022-11-22T02:46:50.213Z,69.03
2022-11-22T02:49:22.486Z,69.58
2022-11-22T02:51:49.553Z,71.13
2022-11-22T02:54:16.478Z,70.11
2022-11-22T02:56:43.044Z,70.25
2022-11-22T02:59:09.715Z,69.65
2022-11-22T03:01:36.637Z,70.33
2022-11-22T03:04:03.273Z,68.91
2022-11-22T03:06:29.776Z,68.74
2022-11-22T03:08:56.846Z,68.13
2022-11-22T03:11:24.083Z,68.99
2022-11-22T03:13:50.941Z,68.83
2022-11-22T03:16:17.588Z,69.84
2022-11-22T03:18:44.099Z,69.33
2022-11-22T03:21:10.553Z,69.20
2022-11-22T03:23:37.078Z,70.03
2022-11-22T03:26:10.668Z,68.14
2022-11-22T03:28:37.177Z,68.47
2022-11-22T03:31:07.349Z,68.31
2022-11-22T03:33:34.812Z,68.89
2022-11-22T03:36:01.647Z,68.77
2022-11-22T03:38:28.085Z,68.60
2022-11-22T03:40:54.631Z,68.96
2022-11-22T03:43:21.444Z,67.62
2022-11-22T03:45:48.523Z,68.52
2022-11-22T03:48:15.067Z,68.13
2022-11-22T03:50:41.496Z,66.96
2022-11-22T03:53:08.491Z,68.57
2022-11-22T03:55:35.201Z,67.45
2022-11-22T03:58:01.896Z,67.22
2022-11-22T04:00:28.393Z,68.55
2022-11-22T04:02:55.017Z,68.42
2022-11-22T04:05:21.522Z,66.94
2022-11-22T04:07:48.872Z,67.29
2022-11-22T04:10:19.349Z,69.70
2022-11-22T04:12:48.742Z,68.33
2022-11-22T04:15:15.318Z,67.85
2022-11-22T04:17:47.838Z,68.90
2022-11-22T04:20:36.012Z,67.51
2022-11-22T04:23:06.836Z,67.36
2022-11-22T04:25:35.288Z,67.99
2022-11-22T04:28:02.378Z,67.46
2022-11-22T04:30:47.486Z,67.40
2022-11-22T04:33:14.803Z,69.22
2022-11-22T04:35:42.317Z,68.49
2022-11-22T04:38:08.988Z,67.67
2022-11-22T04:40:35.893Z,67.57
2022-11-22T04:43:21.564Z,67.04
2022-11-22T04:45:48.118Z,66.74
2022-11-22T04:48:15.079Z,67.18
2022-11-22T04:51:17.380Z,66.18
2022-11-22T04:53:44.926Z,66.13
2022-11-22T04:56:12.165Z,67.53
2022-11-22T04:58:39.004Z,66.73
2022-11-22T05:01:05.575Z,67.04
2022-11-22T05:03:32.258Z,66.09
2022-11-22T05:06:02.570Z,65.24
2022-11-22T05:08:29.676Z,64.88
2022-11-22T05:10:59.575Z,64.76
2022-11-22T05:13:37.775Z,64.15
2022-11-22T05:16:06.131Z,64.20
2022-11-22T05:18:32.797Z,63.74
2022-11-22T05:21:00.708Z,63.62
2022-11-22T05:23:45.754Z,63.58
2022-11-22T05:26:12.257Z,62.42
2022-11-22T05:28:39.448Z,62.44
2022-11-22T05:31:11.830Z,63.02
2022-11-22T05:33:39.981Z,62.89
2022-11-22T05:36:07.668Z,62.92
2022-11-22T05:38:38.055Z,62.21
2022-11-22T05:41:06.761Z,63.09
2022-11-22T05:43:33.572Z,62.92
2022-11-22T05:46:07.478Z,64.74
2022-11-22T05:48:34.017Z,65.31
2022-11-22T05:51:04.377Z,64.22
2022-11-22T05:53:30.948Z,64.67
2022-11-22T05:55:57.453Z,65.47
2022-11-22T05:58:23.988Z,64.50
2022-11-22T06:00:50.414Z,66.03
2022-11-22T06:03:16.864Z,65.24
2022-11-22T06:05:43.316Z,65.21
2022-11-22T06:08:11.374Z,65.68
2022-11-22T06:10:39.112Z,65.99
2022-11-22T06:13:05.580Z,69.36
2022-11-22T06:15:32.121Z,67.65
2022-11-22T06:17:58.633Z,66.86
2022-11-22T06:20:25.282Z,67.49
2022-11-22T06:22:51.717Z,67.26
2022-11-22T06:25:18.255Z,67.75
2022-11-22T06:27:44.732Z,67.40
2022-11-22T06:30:11.776Z,67.29
2022-11-22T06:32:38.287Z,66.88
2022-11-22T06:35:05.156Z,68.10
2022-11-22T06:37:31.696Z,67.15
2022-11-22T06:39:58.198Z,66.10
2022-11-22T06:42:24.976Z,66.94
2022-11-22T06:44:51.522Z,67.48
2022-11-22T06:47:18.283Z,66.92
2022-11-22T06:49:45.642Z,66.86
2022-11-22T06:52:12.200Z,66.14
2022-11-22T06:54:38.826Z,65.53
2022-11-22T06:57:05.315Z,66.18
2022-11-22T06:59:32.175Z,65.77
2022-11-22T07:02:04.525Z,64.92
2022-11-22T07:04:32.885Z,64.77
2022-11-22T07:06:59.322Z,65.39
2022-11-22T07:09:25.935Z,65.73
2022-11-22T07:11:52.369Z,64.48
2022-11-22T07:14:19.258Z,63.92
2022-11-22T07:16:45.680Z,65.22
2022-11-22T07:19:12.122Z,65.81
2022-11-22T07:21:38.570Z,64.67
2022-11-22T07:24:06.031Z,66.12
2022-11-22T07:26:32.615Z,65.56
2022-11-22T07:28:59.028Z,66.72
2022-11-22T07:31:26.109Z,65.73
2022-11-22T07:33:52.620Z,65.93
2022-11-22T07:36:21.257Z,65.92
2022-11-22T07:38:48.540Z,65.12
2022-11-22T07:41:15.661Z,64.88
2022-11-22T07:43:42.216Z,64.64
2022-11-22T07:46:21.810Z,65.50
2022-11-22T07:48:49.656Z,65.14
2022-11-22T07:51:16.707Z,64.45
2022-11-22T07:53:43.333Z,64.03
2022-11-22T07:56:09.931Z,65.17
2022-11-22T07:58:37.530Z,63.11
2022-11-22T08:01:06.293Z,63.14
2022-11-22T08:03:32.881Z,62.84
2022-11-22T08:06:00.941Z,62.28
2022-11-22T08:08:27.851Z,61.36
2022-11-22T08:10:54.449Z,59.85
2022-11-22T08:13:21.395Z,59.76
2022-11-22T08:15:54.423Z,59.83
2022-11-22T08:18:21.828Z,59.87
2022-11-22T08:20:48.268Z,59.05
2022-11-22T08:23:14.818Z,57.76
2022-11-22T08:25:41.416Z,58.42
2022-11-22T08:28:07.956Z,57.59
2022-11-22T08:30:34.597Z,56.93
2022-11-22T08:33:01.071Z,56.54
2022-11-22T08:35:27.559Z,56.84
2022-11-22T08:37:57.776Z,57.04
2022-11-22T08:40:24.506Z,58.43
2022-11-22T08:42:53.898Z,57.24
2022-11-22T08:45:20.415Z,56.93
2022-11-22T08:47:47.311Z,58.60
2022-11-22T08:50:13.783Z,57.24
2022-11-22T08:52:40.244Z,55.40
2022-11-22T08:55:07.611Z,56.08
2022-11-22T08:57:34.079Z,53.43
2022-11-22T09:00:00.635Z,51.63
2022-11-22T09:02:27.177Z,50.15
2022-11-22T09:04:53.673Z,48.89
2022-11-22T09:10:08.111Z,47.26
2022-11-22T09:12:34.752Z,46.98
2022-11-22T09:15:01.324Z,43.63
2022-11-22T09:17:27.860Z,41.24
2022-11-22T09:19:54.488Z,39.63
2022-11-22T09:22:24.017Z,36.33
2022-11-22T09:24:53.399Z,31.67
2022-11-22T09:27:20.238Z,33.56
2022-11-22T09:29:46.697Z,28.28
2022-11-22T09:32:13.152Z,25.60
2022-11-22T09:34:49.668Z,28.16
2022-11-22T09:37:18.547Z,27.33
2022-11-22T09:39:48.458Z,24.18
2022-11-22T09:42:53.412Z,25.52
2022-11-22T09:45:51.934Z,20.92
2022-11-22T09:48:36.576Z,17.61
2022-11-22T09:51:07.347Z,19.19
2022-11-22T09:53:48.113Z,20.78
2022-11-22T09:56:19.632Z,20.60
2022-11-22T09:58:52.905Z,22.82
2022-11-22T10:01:31.836Z,21.02
2022-11-22T10:04:06.483Z,21.40
2022-11-22T10:06:36.080Z,20.45
2022-11-22T10:09:02.518Z,17.67
2022-11-22T10:11:36.795Z,19.98
2022-11-22T10:14:22.718Z,16.68
2022-11-22T10:17:18.467Z,19.79
2022-11-22T10:19:54.461Z,17.05
2022-11-22T10:22:21.260Z,18.15
2022-11-22T10:24:47.727Z,19.07
2022-11-22T10:27:15.409Z,18.78
2022-11-22T10:29:52.156Z,19.77
2022-11-22T10:32:24.798Z,20.63
2022-11-22T10:35:04.070Z,19.42
2022-11-22T10:37:52.431Z,18.73
2022-11-22T10:40:23.676Z,20.04
2022-11-22T10:43:05.189Z,18.06
2022-11-22T10:45:41.231Z,18.05
2022-11-22T10:48:52.433Z,20.26
2022-11-22T10:51:37.502Z,16.92
2022-11-22T10:54:15.452Z,22.07
2022-11-22T10:57:19.215Z,20.38
2022-11-22T11:00:21.986Z,23.67
2022-11-22T11:02:54.473Z,25.05
2022-11-22T11:05:25.297Z,21.88
2022-11-22T11:07:56.717Z,23.08
2022-11-22T11:10:34.549Z,33.83
2022-11-22T11:13:09.448Z,36.77
2022-11-22T11:15:43.002Z,38.24
2022-11-22T11:18:17.561Z,41.36
2022-11-22T11:20:47.588Z,42.32
2022-11-22T11:23:16.133Z,40.77
2022-11-22T11:25:44.628Z,42.42
2022-11-22T11:28:13.135Z,44.30
2022-11-22T11:30:43.296Z,44.58
2022-11-22T11:33:26.523Z,43.88
2022-11-22T11:35:56.623Z,45.28
2022-11-22T11:38:35.753Z,44.55
2022-11-22T11:41:21.909Z,43.64
2022-11-22T11:43:49.539Z,39.38
2022-11-22T11:46:24.676Z,35.15
2022-11-22T11:48:55.737Z,30.62
2022-11-22T11:51:35.630Z,30.15
2022-11-22T11:54:06.031Z,27.72
2022-11-22T11:56:35.430Z,30.80
2022-11-22T11:59:07.209Z,25.23
2022-11-22T12:01:38.698Z,21.65
2022-11-22T12:04:06.509Z,27.58
2022-11-22T12:06:33.610Z,28.80
2022-11-22T12:09:00.928Z,30.48
2022-11-22T12:11:42.349Z,31.75
2022-11-22T12:14:20.068Z,34.46
2022-11-22T12:16:48.207Z,38.13
2022-11-22T12:19:29.925Z,35.85
2022-11-22T12:22:29.465Z,34.95
2022-11-22T12:25:31.930Z,38.52
2022-11-22T12:28:09.707Z,42.76
2022-11-22T12:30:38.143Z,42.77
2022-11-22T12:33:06.784Z,42.07
2022-11-22T12:35:42.311Z,42.78
2022-11-22T12:38:17.866Z,42.49
2022-11-22T12:40:56.264Z,44.35
2022-11-22T12:43:25.105Z,42.70
2022-11-22T12:46:14.111Z,41.65
2022-11-22T12:48:53.135Z,42.74
2022-11-22T12:51:52.643Z,42.14
2022-11-22T12:54:33.730Z,45.01
2022-11-22T12:57:06.376Z,44.14
2022-11-22T12:59:38.805Z,43.48
2022-11-22T13:02:17.327Z,43.77
2022-11-22T13:05:00.677Z,44.10
2022-11-22T13:07:36.565Z,44.50
2022-11-22T13:10:09.280Z,45.16
2022-11-22T13:12:37.842Z,46.04
2022-11-22T13:15:05.261Z,45.53
2022-11-22T13:17:34.899Z,45.80
2022-11-22T13:20:21.284Z,46.13
2022-11-22T13:23:09.973Z,43.30
2022-11-22T13:25:51.480Z,44.63
2022-11-22T13:28:23.967Z,45.58
2022-11-22T13:31:10.212Z,45.47
2022-11-22T13:33:41.612Z,44.94
2022-11-22T13:36:26.912Z,46.15
2022-11-22T13:38:55.979Z,44.71
2022-11-22T13:41:34.563Z,47.57
2022-11-22T13:44:24.402Z,45.66
2022-11-22T13:46:53.792Z,45.68
2022-11-22T13:49:35.447Z,47.31
2022-11-22T13:52:12.787Z,47.24
2022-11-22T13:54:42.482Z,47.42
2022-11-22T13:57:29.374Z,45.97
2022-11-22T14:00:14.387Z,45.04
2022-11-22T14:02:48.129Z,46.78
2022-11-22T14:05:17.611Z,47.13
2022-11-22T14:07:44.405Z,47.29
2022-11-22T14:10:26.450Z,47.04
2022-11-22T14:13:16.104Z,46.73
2022-11-22T14:16:11.644Z,47.33
2022-11-22T14:18:53.405Z,47.82
2022-11-22T14:21:28.831Z,46.90
2022-11-22T14:24:26.271Z,46.49
2022-11-22T14:27:26.418Z,46.14
2022-11-22T14:30:15.164Z,46.77
2022-11-22T14:32:55.639Z,46.58
2022-11-22T14:35:30.066Z,47.49
2022-11-22T14:38:28.541Z,47.44
2022-11-22T14:41:45.132Z,47.80
2022-11-22T14:44:18.688Z,48.43
2022-11-22T14:46:54.622Z,49.45
2022-11-22T14:49:21.538Z,50.09
2022-11-22T14:51:52.659Z,49.12
2022-11-22T14:54:28.049Z,50.32
2022-11-22T14:57:01.249Z,49.85
2022-11-22T14:59:39.684Z,48.81
2022-11-22T15:02:36.188Z,50.33
2022-11-22T15:09:11.062Z,51.74
2022-11-22T15:09:21.647Z,50.08
2022-11-22T15:11:53.985Z,51.41
2022-11-22T15:14:42.224Z,51.52
2022-11-22T15:59:42.806Z,52.68
2022-11-22T16:02:18.966Z,52.03
2022-11-22T16:06:04.619Z,52.56
2022-11-22T16:07:48.876Z,52.56
2022-11-22T16:10:27.640Z,53.50
2022-11-22T16:12:54.527Z,54.28
2022-11-22T16:15:38.413Z,54.90
2022-11-22T16:18:27.141Z,54.29
2022-11-22T16:21:03.237Z,54.40
2022-11-22T16:23:33.144Z,53.23
2022-11-22T16:26:12.369Z,54.89
2022-11-22T16:28:39.068Z,54.78
2022-11-22T16:31:15.988Z,54.02
2022-11-22T16:33:44.224Z,53.51
2022-11-22T16:36:16.156Z,54.03
2022-11-22T16:38:43.565Z,54.40
2022-11-22T16:41:21.155Z,55.69
2022-11-22T16:43:52.104Z,56.20
2022-11-22T16:46:18.955Z,55.64
2022-11-22T16:48:45.711Z,55.89
2022-11-22T16:51:15.043Z,56.06
2022-11-22T16:53:44.233Z,56.83
2022-11-22T16:56:19.350Z,55.51
2022-11-22T16:58:46.844Z,56.26
2022-11-22T17:01:16.085Z,55.69
2022-11-22T17:03:43.776Z,57.48
2022-11-22T17:06:22.188Z,56.87
2022-11-22T17:08:50.479Z,56.84
2022-11-22T17:11:19.599Z,57.22
2022-11-22T17:13:46.424Z,56.03
2022-11-22T17:16:13.378Z,56.64
2022-11-22T17:18:40.103Z,57.67
2022-11-22T17:21:15.137Z,58.49
2022-11-22T17:23:41.962Z,58.92
2022-11-22T17:26:09.980Z,58.77
2022-11-22T17:28:36.446Z,58.87
2022-11-22T17:31:02.988Z,59.10
2022-11-22T17:33:29.641Z,58.61
2022-11-22T17:35:56.576Z,58.83
2022-11-22T17:38:23.026Z,57.75
2022-11-22T17:40:50.228Z,58.30
2022-11-22T17:43:17.415Z,58.10
2022-11-22T17:45:45.063Z,60.05
2022-11-22T17:48:12.230Z,60.16
2022-11-22T17:50:39.426Z,60.33
2022-11-22T17:53:05.892Z,59.61
2022-11-22T17:55:48.265Z,59.78
2022-11-22T17:58:19.103Z,59.98
2022-11-22T18:00:45.617Z,59.35
2022-11-22T18:03:15.624Z,59.89
2022-11-22T18:05:42.643Z,60.25
2022-11-22T18:08:09.184Z,59.50
2022-11-22T18:10:35.636Z,60.02
2022-11-22T18:13:31.954Z,61.07
2022-11-22T18:15:52.830Z,60.29
2022-11-22T18:18:40.730Z,61.37
2022-11-22T18:21:11.412Z,61.08
2022-11-22T18:23:40.748Z,61.31
2022-11-22T18:29:24.621Z,61.15
2022-11-22T18:31:54.015Z,62.37
2022-11-22T18:34:22.145Z,62.80
2022-11-22T18:36:55.177Z,61.51
2022-11-22T18:39:22.902Z,60.93
2022-11-22T18:41:49.492Z,61.90
2022-11-22T18:44:16.032Z,63.13
2022-11-22T18:46:42.640Z,63.20
2022-11-22T18:49:09.885Z,61.11
2022-11-22T18:51:36.438Z,62.50
2022-11-22T18:54:03.091Z,63.27
2022-11-22T18:56:29.799Z,61.41
2022-11-22T18:58:56.349Z,62.05
2022-11-22T19:01:23.424Z,62.20
2022-11-22T19:03:49.984Z,62.26
2022-11-22T19:06:18.400Z,64.04
2022-11-22T19:08:45.994Z,63.73
2022-11-22T19:11:12.792Z,64.48
2022-11-22T19:13:40.991Z,63.61
2022-11-22T19:16:13.201Z,63.99
2022-11-22T19:18:42.872Z,64.05
2022-11-22T19:21:11.926Z,63.91
2022-11-22T19:23:41.598Z,63.47
2022-11-22T19:26:10.396Z,63.86
2022-11-22T19:28:37.221Z,62.28
2022-11-22T19:31:15.115Z,62.16
2022-11-22T19:33:41.655Z,63.69
2022-11-22T19:36:11.635Z,62.67
2022-11-22T19:38:38.125Z,62.37
2022-11-22T19:41:12.183Z,63.18
2022-11-22T19:43:38.957Z,63.08
2022-11-22T19:46:16.013Z,63.29
2022-11-22T19:48:46.992Z,63.05
2022-11-22T19:51:15.362Z,61.85
2022-11-22T19:53:42.851Z,61.71
2022-11-22T19:56:16.302Z,64.79
2022-11-22T19:58:44.403Z,64.33
2022-11-22T20:01:13.016Z,65.88
2022-11-22T20:03:41.077Z,66.58
2022-11-22T20:06:09.081Z,67.09
2022-11-22T20:08:36.007Z,68.24
2022-11-22T20:11:04.038Z,68.82
2022-11-22T20:13:30.671Z,68.54
2022-11-22T20:15:57.419Z,68.08
2022-11-22T20:18:23.908Z,69.10
2022-11-22T20:20:50.616Z,69.73
2022-11-22T20:23:17.122Z,71.38
2022-11-22T20:25:43.745Z,71.38
2022-11-22T20:28:10.220Z,71.58
2022-11-22T20:30:36.832Z,71.52
2022-11-22T20:33:03.359Z,70.53
2022-11-22T20:35:29.800Z,71.54
2022-11-22T20:37:56.467Z,71.28
2022-11-22T20:40:22.952Z,72.21
2022-11-22T20:42:49.404Z,70.66
2022-11-22T20:45:15.941Z,70.29
2022-11-22T20:47:42.443Z,70.25
2022-11-22T20:50:09.081Z,69.54
2022-11-22T20:52:35.758Z,70.94
2022-11-22T20:55:05.363Z,70.22
2022-11-22T20:57:32.140Z,71.21
2022-11-22T20:59:58.836Z,70.48
2022-11-22T21:02:25.290Z,70.26
2022-11-22T21:04:53.772Z,70.75
2022-11-22T21:07:20.229Z,69.71
2022-11-22T21:09:46.738Z,69.46
2022-11-22T21:12:13.185Z,71.48
2022-11-22T21:14:40.306Z,70.42
2022-11-22T21:17:30.588Z,70.25
2022-11-22T21:19:53.309Z,69.64
2022-11-22T21:22:19.718Z,70.29
2022-11-22T21:24:46.204Z,69.69
2022-11-22T21:27:12.670Z,70.11
2022-11-22T21:29:39.851Z,70.06
2022-11-22T21:32:06.394Z,69.08
2022-11-22T21:34:33.721Z,70.34
2022-11-22T21:37:00.285Z,69.28
2022-11-22T21:39:26.782Z,69.10
2022-11-22T21:41:54.759Z,68.06
2022-11-22T21:44:21.273Z,69.05
2022-11-22T21:46:47.739Z,68.17
2022-11-22T21:49:14.243Z,66.63
2022-11-22T21:51:40.710Z,67.61
2022-11-22T21:54:07.331Z,67.24
2022-11-22T21:56:36.404Z,67.10
2022-11-22T21:59:02.910Z,66.86
2022-11-22T22:01:29.559Z,67.12
2022-11-22T22:03:56.304Z,66.76
2022-11-22T22:06:22.911Z,66.48
2022-11-22T22:08:49.376Z,65.97
2022-11-22T22:11:16.094Z,66.51
2022-11-22T22:13:42.568Z,67.12
2022-11-22T22:16:15.304Z,67.40
2022-11-22T22:18:43.382Z,65.66
2022-11-22T22:21:10.990Z,65.10
2022-11-22T22:23:38.543Z,64.74
2022-11-22T22:26:07.427Z,64.68
2022-11-22T22:28:36.155Z,64.60
2022-11-22T22:31:04.552Z,64.91
2022-11-22T22:33:31.517Z,64.83
2022-11-22T22:35:59.092Z,64.75
2022-11-22T22:38:25.799Z,64.14
2022-11-22T22:40:56.092Z,64.50
2022-11-22T22:43:23.355Z,63.74
2022-11-22T22:45:50.802Z,64.32
2022-11-22T22:48:18.202Z,65.49
2022-11-22T22:50:44.923Z,63.79
2022-11-22T22:53:11.721Z,63.14
2022-11-22T22:55:38.240Z,64.15
2022-11-22T22:58:04.947Z,65.35
2022-11-22T23:00:31.450Z,64.80
2022-11-22T23:02:57.909Z,65.35
2022-11-22T23:05:24.731Z,65.72
2022-11-22T23:07:51.233Z,65.29
2022-11-22T23:10:17.911Z,65.31
2022-11-22T23:12:44.554Z,64.84
2022-11-22T23:15:10.990Z,64.04
2022-11-22T23:17:37.586Z,64.16
2022-11-22T23:20:04.373Z,64.00
2022-11-22T23:22:30.915Z,63.61
2022-11-22T23:24:57.368Z,64.25
2022-11-22T23:27:23.827Z,64.01
2022-11-22T23:29:50.340Z,65.06
2022-11-22T23:32:16.779Z,64.21
2022-11-22T23:34:43.185Z,63.85
2022-11-22T23:37:09.628Z,64.48
2022-11-22T23:39:36.233Z,64.27
2022-11-22T23:42:02.746Z,64.78
2022-11-22T23:44:29.256Z,64.44
2022-11-22T23:46:55.723Z,64.37
2022-11-22T23:49:22.168Z,64.49
2022-11-22T23:51:50.277Z,64.32
2022-11-22T23:54:17.114Z,64.34
2022-11-22T23:56:43.578Z,63.70
2022-11-22T23:59:10.407Z,64.52
